Time;durP1;ratioP1;P1;durP2;ratioP2;P2;SDS_P1;SDS_P2;PMS_P1;PMS_P2;Temp;Humidity;BMP_temperature;BMP_pressure;BME280_temperature;BME280_humidity;BME280_pressure;Samples;Min_cycle;Max_cycle;Signal;HPM_P1;HPM_P2
2022/11/09 00:01:43;;;;;;;2.30;2.10;;;14.10;99.90;;;14.68;nan;100169.88;4989781;28;20650;-64
2022/11/09 00:04:10;;;;;;;7.40;3.60;;;14.10;99.90;;;14.61;nan;100187.19;4990969;28;21199;-66
2022/11/09 00:06:37;;;;;;;4.50;3.50;;;14.10;99.90;;;14.53;nan;100202.84;4990676;28;20650;-65
2022/11/09 00:09:06;;;;;;;3.40;2.50;;;14.10;99.90;;;14.65;nan;100209.56;4991069;28;21198;-66
2022/11/09 00:11:37;;;;;;;3.17;2.97;;;14.10;99.90;;;14.69;nan;100224.06;4990013;28;21017;-66
2022/11/09 00:14:04;;;;;;;5.23;3.10;;;14.10;99.90;;;14.61;nan;100226.56;4988083;28;20622;-66
2022/11/09 00:16:32;;;;;;;2.87;2.37;;;14.10;99.90;;;14.55;nan;100228.00;4990126;28;20666;-65
2022/11/09 00:18:58;;;;;;;3.57;3.30;;;14.10;99.90;;;14.49;nan;100222.50;4990671;28;20611;-66
2022/11/09 00:21:25;;;;;;;3.80;3.40;;;14.10;99.90;;;14.53;nan;100213.34;4988600;28;20666;-66
2022/11/09 00:23:53;;;;;;;3.60;2.70;;;14.00;99.90;;;14.49;nan;100214.63;4982806;28;20648;-65
2022/11/09 00:26:20;;;;;;;3.10;2.90;;;14.00;99.90;;;14.38;nan;100188.53;4987766;28;20711;-65
2022/11/09 00:28:48;;;;;;;4.50;2.40;;;13.90;99.90;;;14.28;nan;100190.38;4987917;28;20789;-66
2022/11/09 00:31:20;;;;;;;2.30;2.20;;;13.90;99.90;;;14.16;nan;100178.41;4990850;28;21079;-65
2022/11/09 00:33:49;;;;;;;3.03;2.73;;;13.80;99.90;;;14.07;nan;100176.63;4988205;28;20639;-65
2022/11/09 00:36:17;;;;;;;7.23;3.10;;;13.80;99.90;;;13.75;nan;100159.47;4991906;28;20662;-65
2022/11/09 00:38:49;;;;;;;3.70;2.60;;;13.60;99.90;;;14.03;nan;100150.69;4991511;28;20631;-65
2022/11/09 00:41:17;;;;;;;2.67;2.27;;;13.60;99.90;;;14.14;nan;100154.91;4986554;28;20667;-65
2022/11/09 00:43:45;;;;;;;2.63;2.43;;;13.70;99.90;;;13.96;nan;100175.84;4973734;28;20673;-65
2022/11/09 00:46:12;;;;;;;3.10;2.53;;;13.60;99.90;;;13.93;nan;100188.41;4973706;28;20692;-65
2022/11/09 00:48:39;;;;;;;3.13;2.83;;;13.60;99.90;;;13.87;nan;100207.31;4991094;28;20649;-66
2022/11/09 00:51:07;;;;;;;3.00;2.33;;;13.60;99.90;;;13.86;nan;100219.59;4989986;28;20678;-65
2022/11/09 00:53:34;;;;;;;2.10;1.83;;;13.50;99.90;;;13.77;nan;100222.25;4974468;28;20689;-65
2022/11/09 00:56:07;;;;;;;2.90;2.60;;;13.50;99.90;;;13.71;nan;100223.66;4990489;28;20678;-66
2022/11/09 00:58:37;;;;;;;2.13;1.70;;;13.40;99.90;;;13.72;nan;100217.44;4989154;28;20638;-66
2022/11/09 01:01:11;;;;;;;1.33;1.23;;;13.40;99.90;;;13.69;nan;100212.44;4991569;28;20735;-65
2022/11/09 01:03:38;;;;;;;4.70;3.00;;;13.40;99.90;;;13.65;nan;100205.84;4990407;28;21065;-65
2022/11/09 01:06:06;;;;;;;4.40;2.33;;;13.40;99.90;;;13.71;nan;100201.84;4969595;28;20659;-66
2022/11/09 01:08:34;;;;;;;3.03;2.73;;;13.40;99.90;;;13.66;nan;100202.25;4971979;28;20727;-66
2022/11/09 01:11:07;;;;;;;2.90;1.90;;;13.40;99.90;;;13.66;nan;100206.69;4988807;28;21082;-65
2022/11/09 01:13:36;;;;;;;2.60;2.40;;;13.30;99.90;;;13.60;nan;100215.09;4989576;28;20622;-66
2022/11/09 01:16:11;;;;;;;8.97;2.10;;;13.30;99.90;;;13.65;nan;100213.69;4989823;28;20715;-67
2022/11/09 01:18:39;;;;;;;2.43;2.00;;;13.30;99.90;;;13.79;nan;100218.53;4979523;28;20635;-67
2022/11/09 01:21:11;;;;;;;2.73;2.03;;;13.40;99.90;;;13.72;nan;100220.06;4987328;28;20667;-66
2022/11/09 01:23:39;;;;;;;4.13;2.73;;;13.40;99.90;;;13.78;nan;100221.28;4989653;28;20639;-66
2022/11/09 01:26:10;;;;;;;1.83;1.60;;;13.40;99.90;;;13.69;nan;100215.06;4988989;28;20650;-66
2022/11/09 01:28:38;;;;;;;1.63;1.40;;;13.40;99.90;;;13.79;nan;100221.16;4990222;28;20680;-67
2022/11/09 01:31:14;;;;;;;1.80;1.70;;;13.40;99.90;;;13.85;nan;100211.88;4971982;28;20670;-65
2022/11/09 01:33:41;;;;;;;2.30;2.07;;;13.50;99.90;;;13.83;nan;100217.28;4973397;28;20684;-66
2022/11/09 01:36:15;;;;;;;1.50;1.40;;;13.50;99.90;;;13.83;nan;100216.44;4963396;28;20741;-67
2022/11/09 01:38:42;;;;;;;1.77;1.67;;;13.50;99.90;;;13.87;nan;100209.94;4988675;28;20633;-66
2022/11/09 01:41:21;;;;;;;2.10;1.70;;;13.50;99.90;;;13.88;nan;100214.25;4989668;28;20670;-66
2022/11/09 01:44:12;;;;;;;2.30;1.97;;;13.50;99.90;;;13.92;nan;100220.84;4993876;28;20624;-66
2022/11/09 01:46:55;;;;;;;1.33;1.20;;;13.50;99.90;;;13.88;nan;100230.78;4993055;28;21318;-66
2022/11/09 01:49:50;;;;;;;2.07;1.90;;;13.50;99.90;;;13.79;nan;100242.13;4979001;28;20610;-67
2022/11/09 01:52:23;;;;;;;5.47;3.50;;;13.50;99.90;;;13.89;nan;100229.81;5000848;23;20689;-65
2022/11/09 01:54:57;;;;;;;2.17;1.97;;;13.50;99.90;;;13.91;nan;100216.56;5003680;28;21001;-65
2022/11/09 01:57:34;;;;;;;2.00;1.90;;;13.50;99.90;;;13.88;nan;100214.25;5010792;28;21092;-67
2022/11/09 02:00:09;;;;;;;2.40;2.20;;;13.50;99.90;;;13.85;nan;100212.72;5016542;28;20639;-66
2022/11/09 02:02:40;;;;;;;2.40;1.83;;;13.50;99.90;;;13.88;nan;100220.28;4998280;28;20668;-66
2022/11/09 02:05:11;;;;;;;3.20;2.90;;;13.50;99.90;;;13.81;nan;100213.97;4995621;28;20629;-67
2022/11/09 02:07:40;;;;;;;4.50;2.93;;;13.50;99.90;;;13.93;nan;100210.22;4994379;28;20641;-68
2022/11/09 02:10:17;;;;;;;2.10;1.83;;;13.50;99.90;;;13.85;nan;100211.88;5011414;28;20638;-65
2022/11/09 02:12:44;;;;;;;3.10;1.90;;;13.50;99.90;;;13.84;nan;100203.19;4994944;28;20663;-67
2022/11/09 02:15:12;;;;;;;2.13;1.90;;;13.50;99.90;;;13.83;nan;100201.56;4995435;28;20613;-64
2022/11/09 02:17:41;;;;;;;3.17;2.87;;;13.50;99.90;;;13.76;nan;100202.22;4994825;28;20673;-65
2022/11/09 02:20:14;;;;;;;6.40;2.63;;;13.50;99.90;;;13.79;nan;100204.59;4995713;28;20605;-65
2022/11/09 02:22:41;;;;;;;2.70;2.50;;;13.50;99.90;;;13.84;nan;100200.56;4995289;28;20663;-64
2022/11/09 02:25:13;;;;;;;4.97;3.43;;;13.50;99.90;;;13.97;nan;100193.22;4996064;28;21169;-64
2022/11/09 02:27:42;;;;;;;5.93;3.20;;;13.50;99.90;;;14.04;nan;100190.84;5012127;28;20638;-64
2022/11/09 02:30:11;;;;;;;5.90;3.60;;;13.50;99.90;;;14.08;nan;100183.50;5012743;28;20620;-64
2022/11/09 02:32:38;;;;;;;4.80;4.30;;;13.60;99.90;;;14.05;nan;100173.31;5012674;28;21077;-64
2022/11/09 02:35:05;;;;;;;6.60;4.43;;;13.60;99.90;;;14.03;nan;100171.66;5012474;28;21187;-64
2022/11/09 02:37:37;;;;;;;8.93;4.87;;;13.60;99.90;;;13.81;nan;100165.94;5012775;28;20661;-65
2022/11/09 02:40:12;;;;;;;6.10;4.43;;;13.50;99.90;;;13.73;nan;100168.44;4992368;28;21201;-64
2022/11/09 02:42:39;;;;;;;7.00;4.37;;;13.50;99.90;;;13.92;nan;100156.13;4995116;28;21244;-65
2022/11/09 02:45:07;;;;;;;3.07;2.77;;;13.50;99.90;;;13.81;nan;100151.03;5012026;28;21000;-65
2022/11/09 02:47:34;;;;;;;5.47;3.87;;;13.40;99.90;;;13.81;nan;100151.03;5012416;28;20688;-64
2022/11/09 02:50:01;;;;;;;3.90;2.70;;;13.50;99.90;;;13.70;nan;100148.59;5012043;28;20683;-65
2022/11/09 02:52:28;;;;;;;3.53;3.10;;;13.40;99.90;;;13.66;nan;100156.88;5008729;28;21126;-65
2022/11/09 02:54:55;;;;;;;1.70;1.60;;;13.40;99.90;;;13.76;nan;100145.38;5011414;28;20641;-65
2022/11/09 02:57:22;;;;;;;3.73;2.73;;;13.40;99.90;;;13.80;nan;100141.50;5011849;28;20681;-65
2022/11/09 02:59:48;;;;;;;4.00;3.20;;;13.40;99.90;;;13.83;nan;100138.63;5011383;28;20644;-65
2022/11/09 03:02:15;;;;;;;4.07;3.13;;;13.40;99.90;;;13.67;nan;100127.88;5011667;28;20684;-66
2022/11/09 03:04:42;;;;;;;5.27;3.97;;;13.40;99.90;;;13.78;nan;100125.09;5012266;28;20614;-65
2022/11/09 03:07:09;;;;;;;3.20;2.60;;;13.40;99.90;;;13.59;nan;100117.28;5011662;28;21039;-65
2022/11/09 03:09:36;;;;;;;6.87;4.00;;;13.30;99.90;;;13.52;nan;100118.81;5012370;28;20618;-64
2022/11/09 03:12:27;;;;;;;4.90;4.30;;;13.30;99.90;;;13.57;nan;100116.59;5010562;28;20667;-65
2022/11/09 03:14:50;;;;;;;4.20;3.80;;;13.30;99.90;;;13.53;nan;100107.38;5011781;28;20638;-64
2022/11/09 03:17:17;;;;;;;3.00;2.77;;;13.20;99.90;;;13.57;nan;100097.41;5010779;28;20676;-65
2022/11/09 03:19:44;;;;;;;3.50;3.17;;;13.20;99.90;;;13.47;nan;100105.31;5011379;28;20630;-65
2022/11/09 03:22:11;;;;;;;5.30;3.77;;;13.20;99.90;;;13.56;nan;100128.06;5010739;28;20668;-64
2022/11/09 03:24:38;;;;;;;2.33;2.17;;;13.20;99.90;;;13.43;nan;100151.13;5011595;28;20637;-65
2022/11/09 03:27:05;;;;;;;3.03;2.33;;;13.10;99.90;;;13.36;nan;100146.56;5010734;28;21243;-65
2022/11/09 03:29:32;;;;;;;3.17;2.90;;;13.10;99.90;;;13.25;nan;100147.53;4992394;28;21260;-65
2022/11/09 03:31:59;;;;;;;2.77;2.50;;;13.00;99.90;;;13.15;nan;100149.34;5009717;28;20695;-65
2022/11/09 03:34:26;;;;;;;3.03;2.50;;;13.00;99.90;;;13.25;nan;100152.78;5011280;28;20697;-64
2022/11/09 03:36:53;;;;;;;7.17;3.47;;;13.00;99.90;;;13.10;nan;100154.16;5013138;28;20679;-65
2022/11/09 03:39:20;;;;;;;4.27;3.53;;;12.90;99.90;;;13.21;nan;100161.88;5021728;28;20695;-65
2022/11/09 03:41:47;;;;;;;3.00;2.77;;;12.90;99.90;;;13.21;nan;100174.97;5011035;28;21075;-65
2022/11/09 03:44:14;;;;;;;5.80;4.33;;;12.90;99.90;;;13.21;nan;100167.13;5011786;28;20630;-65
2022/11/09 03:46:40;;;;;;;3.53;2.60;;;12.90;99.90;;;13.22;nan;100179.28;5010340;28;20638;-65
2022/11/09 03:49:07;;;;;;;5.17;3.30;;;12.90;99.90;;;13.23;nan;100180.91;5011478;28;21035;-65
2022/11/09 03:51:34;;;;;;;7.10;4.07;;;12.90;99.90;;;13.20;nan;100174.16;5010227;28;21018;-62
2022/11/09 03:54:01;;;;;;;4.67;3.90;;;12.90;99.90;;;13.18;nan;100178.69;5010529;28;20626;-65
2022/11/09 03:56:28;;;;;;;7.70;4.50;;;12.90;99.90;;;13.23;nan;100180.91;5007405;28;20676;-65
2022/11/09 03:58:55;;;;;;;4.17;3.67;;;12.90;99.90;;;13.33;nan;100181.72;5010581;28;21054;-65
2022/11/09 04:01:22;;;;;;;4.37;3.60;;;12.90;99.90;;;13.13;nan;100194.00;5010319;28;20688;-64
2022/11/09 04:03:49;;;;;;;2.83;1.47;;;12.90;99.90;;;13.14;nan;100184.34;5010656;28;21017;-64
2022/11/09 04:06:16;;;;;;;2.60;2.30;;;12.90;99.90;;;13.18;nan;100183.13;5010339;28;20640;-65
2022/11/09 04:08:43;;;;;;;5.40;3.60;;;12.90;99.90;;;13.15;nan;100184.22;5010750;28;20614;-65
2022/11/09 04:11:15;;;;;;;7.23;3.07;;;12.90;99.90;;;13.13;nan;100193.19;4993871;28;21249;-65
2022/11/09 04:13:42;;;;;;;5.80;3.50;;;12.80;99.90;;;13.17;nan;100190.16;5011509;28;20634;-65
2022/11/09 04:16:09;;;;;;;4.13;3.50;;;12.80;99.90;;;13.21;nan;100191.53;5010128;28;20613;-63
2022/11/09 04:18:36;;;;;;;3.40;2.93;;;12.90;99.90;;;13.20;nan;100192.47;5008000;28;20676;-65
2022/11/09 04:21:03;;;;;;;5.70;4.00;;;12.90;99.90;;;13.12;nan;100188.88;5004802;28;20719;-64
2022/11/09 04:23:30;;;;;;;5.23;4.30;;;12.80;99.90;;;13.04;nan;100186.97;5010327;28;20630;-64
2022/11/09 04:25:58;;;;;;;6.87;4.37;;;12.80;99.90;;;13.13;nan;100190.56;5010060;28;20702;-64
2022/11/09 04:28:25;;;;;;;5.63;3.80;;;12.80;99.90;;;13.12;nan;100181.88;5009938;28;20630;-64
2022/11/09 04:30:52;;;;;;;2.93;2.30;;;12.80;99.90;;;13.25;nan;100178.97;4991939;28;20634;-64
2022/11/09 04:33:19;;;;;;;5.27;3.87;;;12.90;99.90;;;13.17;nan;100161.34;5008976;28;20634;-64
2022/11/09 04:35:46;;;;;;;7.33;5.17;;;12.90;99.90;;;13.28;nan;100170.84;5009043;28;20684;-64
2022/11/09 04:38:13;;;;;;;7.20;4.80;;;12.90;99.90;;;13.15;nan;100186.00;5009918;28;20662;-64
2022/11/09 04:40:40;;;;;;;8.87;5.10;;;12.90;99.90;;;13.12;nan;100199.38;5009422;28;20634;-64
2022/11/09 04:43:12;;;;;;;7.10;5.07;;;12.80;99.90;;;12.86;nan;100199.03;5011450;28;20853;-64
2022/11/09 04:45:39;;;;;;;5.63;4.53;;;12.80;99.90;;;13.00;nan;100198.66;5009596;28;20642;-62
2022/11/09 04:48:09;;;;;;;6.87;5.00;;;12.70;99.90;;;13.19;nan;100218.81;5010087;28;21001;-65
2022/11/09 04:50:36;;;;;;;5.70;4.70;;;12.80;99.90;;;13.16;nan;100209.44;5003388;28;21069;-63
2022/11/09 04:53:12;;;;;;;5.87;4.50;;;12.80;99.90;;;13.29;nan;100206.56;5020747;28;20763;-65
2022/11/09 04:55:40;;;;;;;10.30;4.97;;;12.80;99.90;;;13.37;nan;100211.94;5010743;28;20718;-64
2022/11/09 04:58:08;;;;;;;6.97;3.77;;;12.90;99.90;;;13.38;nan;100216.22;4992153;28;20677;-65
2022/11/09 05:00:35;;;;;;;5.40;3.83;;;13.00;99.90;;;13.29;nan;100208.38;5010028;28;20981;-65
2022/11/09 05:03:04;;;;;;;4.40;4.00;;;13.00;99.90;;;13.42;nan;100216.75;4993202;28;21381;-66
2022/11/09 05:05:33;;;;;;;7.27;3.03;;;13.00;99.90;;;13.37;nan;100218.97;5010333;28;20612;-64
2022/11/09 05:08:01;;;;;;;5.13;3.23;;;13.00;99.90;;;13.19;nan;100221.44;4992373;28;20642;-65
2022/11/09 05:10:28;;;;;;;3.93;3.07;;;12.90;99.90;;;13.16;nan;100208.63;5010690;28;20640;-65
2022/11/09 05:13:04;;;;;;;11.00;3.60;;;12.90;99.90;;;13.00;nan;100206.50;4975795;28;20666;-65
2022/11/09 05:15:32;;;;;;;4.03;3.30;;;12.80;99.90;;;12.98;nan;100212.84;5011910;28;20617;-66
2022/11/09 05:18:00;;;;;;;7.50;4.90;;;12.80;99.90;;;13.22;nan;100229.03;5013140;28;20723;-64
2022/11/09 05:20:28;;;;;;;5.87;3.77;;;12.80;99.90;;;13.26;nan;100235.66;5013887;28;20606;-66
2022/11/09 05:25:57;;;;;;;7.60;3.50;;;12.80;99.90;;;13.02;nan;100230.78;4990768;28;21043;-66
2022/11/09 05:28:23;;;;;;;6.07;3.47;;;12.80;99.90;;;13.00;nan;100229.25;5012448;28;20641;-65
2022/11/09 05:30:50;;;;;;;6.10;3.90;;;12.70;99.90;;;13.07;nan;100222.53;5013650;28;20631;-65
2022/11/09 05:33:17;;;;;;;6.17;3.60;;;12.80;99.90;;;13.10;nan;100217.00;5012844;28;20633;-65
2022/11/09 05:35:45;;;;;;;5.03;4.27;;;12.80;99.90;;;13.07;nan;100217.31;5013235;28;21030;-65
2022/11/09 05:38:11;;;;;;;6.23;3.77;;;12.80;99.90;;;13.15;nan;100214.81;5013522;28;21091;-65
2022/11/09 05:40:38;;;;;;;6.70;4.67;;;12.80;99.90;;;13.06;nan;100206.00;5012664;28;20687;-65
2022/11/09 05:43:05;;;;;;;6.27;4.37;;;12.80;99.90;;;13.16;nan;100204.19;5012637;28;20981;-64
2022/11/09 05:45:32;;;;;;;4.37;3.60;;;12.80;99.90;;;13.13;nan;100204.50;5022141;28;20636;-64
2022/11/09 05:48:13;;;;;;;5.97;4.50;;;12.80;99.90;;;13.09;nan;100204.91;5013397;28;21049;-66
2022/11/09 05:50:41;;;;;;;2.80;2.00;;;12.80;99.90;;;13.04;nan;100191.34;5004623;28;20633;-65
2022/11/09 05:53:10;;;;;;;8.43;3.70;;;12.80;99.90;;;13.04;nan;100193.97;5012783;28;20646;-66
2022/11/09 05:55:37;;;;;;;6.20;2.97;;;12.70;99.90;;;12.94;nan;100206.22;5012115;28;20637;-65
2022/11/09 05:58:04;;;;;;;1.10;1.07;;;12.70;99.90;;;12.92;nan;100206.38;5012513;28;20665;-65
2022/11/09 06:00:31;;;;;;;5.20;3.40;;;12.70;99.90;;;12.91;nan;100203.84;5011534;28;20641;-66
2022/11/09 06:03:07;;;;;;;1.43;1.43;;;12.70;99.90;;;12.95;nan;100186.91;5012339;28;20695;-66
2022/11/09 06:05:39;;;;;;;1.53;1.40;;;12.70;99.90;;;12.97;nan;100185.81;4994523;28;20635;-65
2022/11/09 06:08:12;;;;;;;10.40;5.13;;;12.70;99.90;;;13.06;nan;100194.69;5012892;28;20630;-65
2022/11/09 06:10:41;;;;;;;2.40;1.73;;;12.80;99.90;;;12.98;nan;100203.19;5011962;28;21011;-66
2022/11/09 06:13:08;;;;;;;2.00;1.70;;;12.70;99.90;;;13.08;nan;100201.44;5012030;28;20644;-65
2022/11/09 06:15:35;;;;;;;5.77;3.80;;;12.80;99.90;;;12.86;nan;100199.03;5012650;28;20637;-65
2022/11/09 06:18:03;;;;;;;3.83;3.13;;;12.70;99.90;;;12.84;nan;100205.38;5011966;28;20676;-65
2022/11/09 06:20:31;;;;;;;6.10;3.50;;;12.60;99.90;;;13.02;nan;100211.59;5012058;28;21014;-66
2022/11/09 06:23:00;;;;;;;5.97;3.87;;;12.70;99.90;;;13.00;nan;100219.59;5011884;28;20653;-67
2022/11/09 06:25:31;;;;;;;4.10;3.60;;;12.70;99.90;;;12.95;nan;100207.84;5012618;28;20633;-65
2022/11/09 06:27:59;;;;;;;3.90;3.10;;;12.70;99.90;;;12.97;nan;100216.41;5009022;28;20660;-63
2022/11/09 06:30:26;;;;;;;8.60;3.47;;;12.70;99.90;;;13.03;nan;100213.28;5011943;28;21193;-66
2022/11/09 06:33:02;;;;;;;4.40;3.70;;;12.70;99.90;;;13.00;nan;100216.16;5011135;28;20661;-65
2022/11/09 06:35:29;;;;;;;3.23;2.57;;;12.80;99.90;;;13.05;nan;100212.19;5011781;28;20641;-65
2022/11/09 06:37:58;;;;;;;3.80;3.03;;;12.80;99.90;;;13.22;nan;100210.72;5009855;28;20688;-64
2022/11/09 06:40:25;;;;;;;1.23;0.67;;;12.80;99.90;;;13.14;nan;100202.69;5025879;28;20621;-65
2022/11/09 06:42:57;;;;;;;1.40;1.30;;;12.80;99.90;;;13.16;nan;100196.34;5005270;28;20658;-66
2022/11/09 06:45:24;;;;;;;4.50;3.80;;;12.90;99.90;;;13.17;nan;100197.19;4994075;28;20687;-66
2022/11/09 06:47:55;;;;;;;5.87;3.17;;;12.90;99.90;;;13.25;nan;100163.25;4995012;28;20638;-65
2022/11/09 06:50:23;;;;;;;4.07;2.67;;;12.90;99.90;;;13.15;nan;100168.50;5011503;28;20633;-67
2022/11/09 06:52:56;;;;;;;1.20;1.20;;;12.90;99.90;;;13.17;nan;100161.34;4971117;28;20677;-66
2022/11/09 06:55:25;;;;;;;6.20;2.60;;;12.90;99.90;;;13.20;nan;100165.47;5009827;28;20638;-66
2022/11/09 06:57:52;;;;;;;3.93;3.53;;;12.90;99.90;;;13.27;nan;100156.09;5005518;28;21066;-66
2022/11/09 07:00:19;;;;;;;2.30;1.40;;;12.90;99.90;;;13.20;nan;100165.47;5011488;28;20633;-67
2022/11/09 07:02:46;;;;;;;3.97;2.97;;;12.90;99.90;;;13.22;nan;100164.34;5006581;28;20652;-66
2022/11/09 07:05:13;;;;;;;5.20;4.00;;;13.00;99.90;;;13.24;nan;100164.22;5010170;28;21006;-66
2022/11/09 07:07:40;;;;;;;2.37;2.20;;;12.90;99.90;;;13.12;nan;100179.25;5030543;28;20698;-66
2022/11/09 07:10:08;;;;;;;3.03;2.43;;;12.90;99.90;;;13.17;nan;100186.69;5018486;28;21185;-67
2022/11/09 07:12:35;;;;;;;1.27;1.17;;;12.90;99.90;;;13.21;nan;100195.94;4995077;28;20669;-67
2022/11/09 07:15:03;;;;;;;3.90;2.67;;;12.90;99.90;;;13.21;nan;100206.41;5010317;28;20642;-66
2022/11/09 07:17:31;;;;;;;1.90;1.50;;;13.00;99.90;;;13.30;nan;100204.75;5011522;28;20637;-64
2022/11/09 07:19:58;;;;;;;4.83;2.73;;;13.00;99.90;;;13.28;nan;100220.63;5011293;28;21046;-66
2022/11/09 07:22:28;;;;;;;2.57;2.17;;;13.00;99.90;;;13.25;nan;100234.00;5025975;28;20810;-67
2022/11/09 07:24:55;;;;;;;1.67;1.57;;;13.00;99.90;;;13.36;nan;100231.25;5031132;28;20675;-66
2022/11/09 07:27:23;;;;;;;2.30;2.10;;;13.00;99.90;;;13.21;nan;100235.22;5014855;28;20646;-66
2022/11/09 07:29:53;;;;;;;1.77;1.60;;;13.00;99.90;;;13.18;nan;100228.47;5011406;28;20652;-66
2022/11/09 07:32:20;;;;;;;2.40;2.20;;;13.00;99.90;;;13.21;nan;100224.75;5011740;28;20664;-67
2022/11/09 07:35:02;;;;;;;2.93;2.70;;;13.00;99.90;;;13.32;nan;100237.72;5011490;28;20643;-66
2022/11/09 07:37:29;;;;;;;0.77;0.60;;;13.00;99.90;;;13.26;nan;100238.28;5007634;28;20699;-64
2022/11/09 07:39:57;;;;;;;4.07;3.23;;;13.00;99.90;;;13.22;nan;100248.19;5005823;28;20635;-66
2022/11/09 07:42:24;;;;;;;3.33;2.50;;;13.00;99.90;;;13.22;nan;100257.84;5008013;28;20671;-66
2022/11/09 07:44:51;;;;;;;2.93;2.37;;;13.00;99.90;;;13.31;nan;100258.84;5006312;28;21209;-65
2022/11/09 07:47:19;;;;;;;1.23;1.23;;;13.00;99.90;;;13.37;nan;100264.34;5010739;28;20696;-66
2022/11/09 07:49:46;;;;;;;2.63;1.50;;;13.00;99.90;;;13.37;nan;100266.16;5009034;28;20634;-65
2022/11/09 07:52:13;;;;;;;1.73;1.63;;;13.10;99.90;;;13.32;nan;100274.41;5010839;28;20719;-65
2022/11/09 07:54:40;;;;;;;5.60;2.60;;;13.10;99.90;;;13.32;nan;100282.28;4991314;28;20645;-66
2022/11/09 07:57:07;;;;;;;4.10;2.40;;;13.00;99.90;;;13.52;nan;100285.75;5011465;28;20621;-66
2022/11/09 07:59:34;;;;;;;2.57;1.57;;;13.10;99.90;;;13.67;nan;100287.78;4992500;28;20672;-66
2022/11/09 08:02:01;;;;;;;4.73;2.30;;;13.20;99.90;;;13.49;nan;100299.94;5008888;28;20677;-67
2022/11/09 08:04:28;;;;;;;3.00;2.67;;;13.20;99.90;;;13.61;nan;100309.31;4999509;28;20634;-68
2022/11/09 08:06:55;;;;;;;2.90;2.70;;;13.20;99.90;;;13.71;nan;100301.47;5008072;28;21228;-67
2022/11/09 08:09:23;;;;;;;2.23;2.03;;;13.20;99.90;;;13.67;nan;100306.16;5007782;28;20645;-66
2022/11/09 08:11:50;;;;;;;2.67;2.23;;;13.30;99.90;;;13.50;nan;100309.44;5008887;28;20649;-66
2022/11/09 08:14:17;;;;;;;1.90;1.80;;;13.30;99.90;;;13.56;nan;100303.69;5010360;28;21064;-67
2022/11/09 08:16:44;;;;;;;2.07;1.97;;;13.30;99.90;;;13.65;nan;100309.91;4992895;28;20641;-66
2022/11/09 08:19:11;;;;;;;1.27;1.27;;;13.20;99.90;;;13.59;nan;100313.03;5011508;28;20668;-67
2022/11/09 08:21:38;;;;;;;1.77;1.63;;;13.30;99.90;;;13.56;nan;100315.97;5009678;28;20664;-66
2022/11/09 08:24:05;;;;;;;1.80;1.40;;;13.20;99.90;;;13.57;nan;100312.34;5010345;28;20614;-66
2022/11/09 08:26:32;;;;;;;1.43;1.40;;;13.20;99.90;;;13.59;nan;100328.78;5010844;28;20634;-66
2022/11/09 08:28:59;;;;;;;1.33;1.33;;;13.20;99.90;;;13.63;nan;100325.75;5011447;28;20625;-66
2022/11/09 08:31:26;;;;;;;1.23;1.17;;;13.30;99.90;;;13.72;nan;100327.56;5010023;28;20661;-66
2022/11/09 08:33:53;;;;;;;1.10;1.00;;;13.30;99.90;;;13.77;nan;100333.22;5011155;28;21211;-66
2022/11/09 08:36:20;;;;;;;1.20;1.17;;;13.40;99.90;;;13.81;nan;100331.97;5010572;28;20638;-66
2022/11/09 08:38:47;;;;;;;0.73;0.73;;;13.40;99.90;;;13.85;nan;100333.34;5010788;28;20661;-67
2022/11/09 08:41:14;;;;;;;0.37;0.37;;;13.50;99.90;;;13.89;nan;100326.88;5005067;28;20728;-64
2022/11/09 08:43:41;;;;;;;1.00;1.00;;;13.50;99.90;;;14.06;nan;100340.22;5011188;28;20634;-66
2022/11/09 08:46:08;;;;;;;0.83;0.83;;;13.60;99.90;;;14.24;nan;100338.56;5010180;28;20618;-66
2022/11/09 08:48:35;;;;;;;0.70;0.70;;;13.70;99.90;;;14.47;nan;100335.53;5010638;28;20720;-67
2022/11/09 08:51:02;;;;;;;1.17;0.87;;;13.80;99.90;;;14.69;nan;100342.22;5009595;28;20650;-67
2022/11/09 08:53:29;;;;;;;1.07;0.97;;;14.00;99.90;;;15.06;nan;100342.19;5010075;28;21000;-69
2022/11/09 08:55:56;;;;;;;0.60;0.60;;;14.30;99.90;;;15.49;nan;100324.00;5004201;28;20673;-67
2022/11/09 08:58:23;;;;;;;0.63;0.63;;;14.60;99.90;;;16.55;nan;100337.91;4992506;28;20684;-67
2022/11/09 09:00:50;;;;;;;0.80;0.80;;;15.20;99.90;;;17.22;nan;100344.97;5007875;28;20687;-69
2022/11/09 09:03:17;;;;;;;0.60;0.60;;;15.80;99.90;;;17.16;nan;100343.00;5008389;28;20630;-67
2022/11/09 09:05:44;;;;;;;0.93;0.93;;;16.10;99.90;;;17.32;nan;100336.94;5010219;28;20634;-65
2022/11/09 09:08:14;;;;;;;0.40;0.37;;;16.30;99.90;;;17.20;nan;100333.78;5009651;28;20665;-68
2022/11/09 09:10:41;;;;;;;0.60;0.60;;;16.50;99.90;;;17.39;nan;100340.59;5010621;28;20617;-66
2022/11/09 09:13:09;;;;;;;1.20;0.70;;;16.60;99.90;;;17.13;nan;100343.28;5009178;28;20630;-65
2022/11/09 09:15:36;;;;;;;0.70;0.70;;;16.60;99.90;;;17.74;nan;100337.69;5004880;28;20700;-66
2022/11/09 09:18:04;;;;;;;0.50;0.50;;;17.00;99.90;;;17.76;nan;100344.47;5002926;28;20634;-66
2022/11/09 09:20:31;;;;;;;7.77;4.73;;;17.00;99.90;;;17.15;nan;100338.69;4999895;28;20696;-65
2022/11/09 09:23:00;;;;;;;19.17;8.10;;;16.80;99.90;;;17.13;nan;100340.66;5006594;28;20662;-67
2022/11/09 09:25:27;;;;;;;1.00;1.00;;;16.70;99.90;;;17.53;nan;100339.97;5003099;28;20696;-68
2022/11/09 09:27:54;;;;;;;1.10;1.00;;;16.80;99.90;;;17.36;nan;100339.09;5000562;28;20642;-67
2022/11/09 09:30:21;;;;;;;1.63;1.00;;;16.70;99.90;;;17.02;nan;100346.22;4992377;28;21258;-67
2022/11/09 09:32:48;;;;;;;1.00;1.00;;;16.60;99.90;;;16.78;nan;100349.53;5009143;28;20672;-67
2022/11/09 09:35:15;;;;;;;5.03;1.00;;;16.40;99.90;;;16.54;nan;100343.31;5010724;28;20695;-66
2022/11/09 09:37:43;;;;;;;1.17;1.17;;;16.20;99.90;;;16.46;nan;100345.88;5009016;28;21248;-67
2022/11/09 09:40:27;;;;;;;0.97;0.70;;;16.10;99.90;;;16.54;nan;100341.53;5009826;28;20669;-67
2022/11/09 09:42:55;;;;;;;1.10;1.10;;;16.10;99.90;;;16.93;nan;100358.53;4992515;28;20665;-66
2022/11/09 09:45:27;;;;;;;1.23;1.13;;;16.20;99.90;;;17.31;nan;100349.31;5005992;28;20629;-66
2022/11/09 09:48:27;;;;;;;0.70;0.70;;;16.60;99.90;;;18.17;nan;100355.06;4985582;28;21047;-66
2022/11/09 09:51:07;;;;;;;2.00;1.40;;;17.00;99.90;;;18.95;nan;100361.41;4997367;28;20761;-66
2022/11/09 09:53:48;;;;;;;0.80;0.80;;;17.90;99.90;;;21.32;nan;100360.03;4991388;28;20260;-65
2022/11/09 09:56:25;;;;;;;0.97;0.97;;;18.90;99.90;;;21.54;nan;100359.91;5005032;28;20706;-67
2022/11/09 09:59:37;;;;;;;0.97;0.97;;;19.70;99.90;;;23.11;nan;100368.38;5006834;28;20665;-65
2022/11/09 10:02:30;;;;;;;1.10;1.00;;;20.60;99.90;;;24.93;nan;100366.22;4994374;28;21083;-66
2022/11/09 10:05:02;;;;;;;1.00;1.00;;;21.80;99.90;;;25.30;nan;100378.81;5007325;28;21204;-66
2022/11/09 10:08:05;;;;;;;1.33;1.23;;;22.60;99.90;;;25.59;nan;100369.50;4995532;28;20638;-67
2022/11/09 10:11:10;;;;;;;1.00;0.90;;;23.00;99.90;;;25.20;nan;100367.78;5004695;28;20694;-66
2022/11/09 10:13:57;;;;;;;1.57;1.47;;;23.70;99.90;;;25.36;nan;100361.97;5011626;28;21098;-66
2022/11/09 10:17:24;;;;;;;2.20;1.10;;;23.50;99.90;;;24.94;nan;100366.00;5011107;28;21269;-66
2022/11/09 10:20:31;;;;;;;1.00;1.00;;;23.20;99.90;;;21.11;nan;100352.84;4965822;28;20669;-66
2022/11/09 10:23:21;;;;;;;1.73;1.03;;;21.40;99.90;;;19.84;nan;100345.91;5018728;28;20663;-67
2022/11/09 10:25:54;;;;;;;1.90;1.27;;;20.00;99.90;;;18.64;nan;100345.47;5022676;28;20633;-66
2022/11/09 10:28:32;;;;;;;1.80;0.90;;;18.90;99.90;;;18.35;nan;100345.97;5012042;28;20629;-66
2022/11/09 10:31:21;;;;;;;0.80;0.80;;;18.40;99.90;;;17.91;nan;100342.00;5005983;28;20649;-66
2022/11/09 10:34:07;;;;;;;0.63;0.63;;;17.90;99.90;;;17.98;nan;100344.81;5012515;28;20629;-67
2022/11/09 10:36:51;;;;;;;1.87;0.90;;;17.60;99.90;;;17.40;nan;100335.13;4995655;28;21051;-66
2022/11/09 10:39:20;;;;;;;1.13;1.13;;;17.30;99.90;;;17.17;nan;100344.63;5003719;28;20680;-66
2022/11/09 10:41:47;;;;;;;1.10;1.10;;;17.00;99.90;;;17.09;nan;100347.25;5010380;28;20666;-67